• Join FlightAware (Why Join?)
  • Login
  • US Flag 
10:46AM EDT


 

Airport Tracker/Info


-or-


 

Live Flight TrackerFlight Track Log ✈ B-18725 ✈ 27-Apr-2013 ✈ WSSS / SIN - VTBS / BKK

Flight Track Log - Related Links

Times and Time Zones

All times are in EDT time to prevent confusion due to time zone crossing. See the B-18725 flight status page for this flight to view local times or setup timezone preferences in your user account.

Time Position Orientation Groundspeed Altitude Reporting Facility
EDT Latitude Longitude Course Direction KTS MPH feet Rate Location/Type
06:55PM 1.3220 103.9820 198° South 164 189 1,200  Level FlightAware
06:55PM 1.3060 103.9750 204° Southwest 165 190 2,000 1,860 Climbing FlightAware
06:55PM 1.2990 103.9730 196° South 167 192 2,300 1,680 Climbing FlightAware
06:56PM 1.2780 103.9910 139° Southeast 188 216 3,300 1,380 Climbing FlightAware
06:56PM 1.2830 104.0120 77° East 211 243 3,700 1,080 Climbing FlightAware
06:57PM 1.2950 104.0420 68° East 242 278 4,300 1,200 Climbing FlightAware
06:57PM 1.3070 104.0550 47° Northeast 259 298 4,600 1,200 Climbing FlightAware
06:57PM 1.3190 104.0600 23° Northeast 268 308 4,800 1,440 Climbing FlightAware
06:58PM 1.3370 104.0630 North 278 320 5,200 2,520 Climbing FlightAware
06:58PM 1.3750 104.0530 345° North 281 323 6,700 2,820 Climbing FlightAware
06:58PM 1.4070 104.0430 343° North 286 329 7,800 2,580 Climbing FlightAware
06:59PM 1.4430 104.0310 342° North 292 336 9,100 2,400 Climbing FlightAware
07:00PM 1.5040 104.0100 341° North 312 359 10,800 1,800 Climbing FlightAware
07:00PM 1.5620 103.9900 341° North 354 407 11,700 1,380 Climbing FlightAware
07:01PM 1.6280 103.9670 341° North 394 453 12,700 2,160 Climbing FlightAware
07:02PM 1.7100 103.9370 340° North 413 475 14,800 2,940 Climbing FlightAware
07:02PM 1.7820 103.9120 341° North 423 487 16,900 2,940 Climbing FlightAware
07:03PM 1.8700 103.9010 353° North 436 502 19,000 2,640 Climbing FlightAware
07:04PM 1.9520 103.8970 357° North 445 512 20,700 2,460 Climbing FlightAware
07:05PM 2.0340 103.8930 357° North 456 525 22,300 2,280 Climbing FlightAware
07:05PM 2.1350 103.8870 357° North 470 541 24,000 2,100 Climbing FlightAware
07:06PM 2.2220 103.8820 357° North 481 554 25,300 1,740 Climbing FlightAware
07:07PM 2.3230 103.8760 357° North 485 558 26,500 1,800 Climbing FlightAware
07:07PM 2.4100 103.8600 350° North 493 567 27,900 1,860 Climbing FlightAware
07:08PM 2.4970 103.8240 338° Northwest 503 579 29,000 1,440 Climbing FlightAware
07:09PM 2.5960 103.7790 336° Northwest 510 587 30,000 1,500 Climbing FlightAware
07:09PM 2.6750 103.7430 336° Northwest 508 585 31,200 1,260 Climbing FlightAware
07:10PM 2.7910 103.6890 335° Northwest 503 579 32,000 480 Climbing FlightAware
07:11PM 2.8690 103.6550 336° Northwest 479 551 32,000 480 Level FlightAware
07:12PM 2.9440 103.6210 336° Northwest 480 552 32,700 1,320 Climbing FlightAware
07:13PM 3.0400 103.5780 336° Northwest 484 557 33,900 1,440 Climbing FlightAware
07:13PM 3.1250 103.5400 336° Northwest 486 559 34,900 1,380 Climbing FlightAware
07:14PM 3.2220 103.4960 336° Northwest 486 559 36,000 1,320 Climbing FlightAware
07:15PM 3.3400 103.4430 336° Northwest 483 556 37,300 1,200 Climbing FlightAware
07:16PM 3.4320 103.4030 337° Northwest 483 556 38,000 420 Climbing FlightAware
07:16PM 3.5160 103.3670 337° Northwest 483 556 38,000  Level FlightAware
07:17PM 3.5860 103.3370 337° Northwest 483 556 38,000  Level FlightAware
07:18PM 3.7090 103.2940 341° North 38,000  Level FlightAware
07:19PM 3.8000 103.2580 338° Northwest 486 559 38,000  Level FlightAware
07:19PM 3.8810 103.2260 338° Northwest 484 557 38,000  Level FlightAware
07:20PM 3.9670 103.1910 338° Northwest 486 559 38,000  Level FlightAware
07:21PM 4.0570 103.1550 338° Northwest 487 560 38,000  Level FlightAware
07:21PM 4.1420 103.1220 339° North 489 563 38,000  Level FlightAware
07:22PM 4.2500 103.0790 338° Northwest 490 564 38,000  Level FlightAware
07:23PM 4.3350 103.0450 338° Northwest 490 564 38,000  Level FlightAware
07:23PM 4.4300 103.0070 338° Northwest 490 564 38,000  Level FlightAware
07:24PM 4.5260 102.9690 338° Northwest 489 563 38,000  Level FlightAware
07:25PM 4.6090 102.9360 338° Northwest 490 564 38,000  Level FlightAware
07:26PM 4.6940 102.9020 338° Northwest 489 563 38,000  Level FlightAware
07:26PM 4.7900 102.8630 338° Northwest 489 563 38,000  Level FlightAware
07:27PM 4.8620 102.8350 339° North 487 560 38,000  Level FlightAware
07:28PM 4.9920 102.7830 338° Northwest 38,000  Level FlightAware
07:29PM 5.1120 102.7350 338° Northwest 485 558 38,000  Level FlightAware
07:30PM 5.1970 102.7010 338° Northwest 482 555 38,000  Level FlightAware
07:30PM 5.2710 102.6720 339° North 481 554 38,000  Level FlightAware
07:31PM 5.3730 102.6300 338° Northwest 481 554 38,000  Level FlightAware
07:32PM 5.4410 102.6040 339° North 480 552 38,000  Level FlightAware
07:32PM 5.5310 102.5670 338° Northwest 480 552 38,000  Level FlightAware
07:34PM 5.7240 102.4900 338° Northwest 481 554 38,000  Level FlightAware
07:34PM 5.7940 102.4620 338° Northwest 481 554 38,000  Level FlightAware
07:35PM 5.8850 102.4260 339° North 481 554 38,000  Level FlightAware
07:36PM 5.9850 102.3850 338° Northwest 479 551 38,000  Level FlightAware
07:37PM 6.0540 102.3560 337° Northwest 480 552 38,000  Level FlightAware
07:37PM 6.1540 102.3170 339° North 483 556 38,000  Level FlightAware
07:38PM 6.2400 102.2830 339° North 483 556 38,000  Level FlightAware
07:39PM 6.3230 102.2510 339° North 484 557 38,000  Level FlightAware
07:39PM 6.4130 102.2060 334° Northwest 484 557 38,000  Level FlightAware
07:40PM 6.4900 102.1600 329° Northwest 485 558 38,000  Level FlightAware
07:41PM 6.6260 102.0840 331° Northwest 484 557 38,000  Level FlightAware
07:42PM 6.7160 102.0740 354° North 481 554 38,000  Level FlightAware
07:43PM 6.8140 102.0670 356° North 485 558 38,000  Level FlightAware
07:43PM 6.9040 102.0570 354° North 485 558 38,000  Level FlightAware
07:44PM 6.9960 102.0470 354° North 486 559 38,000  Level FlightAware
07:45PM 7.0720 102.0370 353° North 486 559 38,000  Level FlightAware
07:45PM 7.1480 102.0280 353° North 486 559 38,000  Level FlightAware
07:46PM 7.2240 102.0180 353° North 486 559 38,000  Level FlightAware
07:47PM 7.3190 102.0070 353° North 486 559 38,000  Level FlightAware
07:47PM 7.3950 101.9970 353° North 486 559 38,000  Level FlightAware
07:48PM 7.4710 101.9880 353° North 486 559 38,000  Level FlightAware
07:49PM 7.5460 101.9780 352° North 486 559 38,000  Level FlightAware
07:50PM 7.6410 101.9670 353° North 486 559 38,000  Level FlightAware
07:50PM 7.7170 101.9570 353° North 486 559 38,000  Level FlightAware
07:51PM 7.7930 101.9480 353° North 486 559 38,000  Level FlightAware
07:52PM 7.8690 101.9380 353° North 486 559 38,000  Level FlightAware
07:52PM 7.9450 101.9290 353° North 486 559 38,000  Level FlightAware
07:53PM 8.0400 101.9170 353° North 486 559 38,000  Level FlightAware
07:56PM 8.3105 101.8618 349° North  Level Estimated
07:57PM 8.4240 101.8387 349° North  Level Estimated
07:58PM 8.5375 101.8155 349° North  Level Estimated
07:59PM 8.6510 101.7923 349° North  Level Estimated
08:00PM 8.7645 101.7691 349° North  Level Estimated
08:01PM 8.8780 101.7459 349° North  Level Estimated
08:02PM 8.9915 101.7227 349° North  Level Estimated
08:03PM 9.1050 101.6994 349° North  Level Estimated
08:04PM 9.2185 101.6762 349° North  Level Estimated
08:05PM 9.3320 101.6529 349° North  Level Estimated
08:06PM 9.4455 101.6296 349° North  Level Estimated
08:07PM 9.5590 101.6063 349° North  Level Estimated
08:08PM 9.6725 101.5830 349° North  Level Estimated
08:09PM 9.7859 101.5596 349° North  Level Estimated
08:10PM 9.8994 101.5363 349° North  Level Estimated
08:11PM 10.0129 101.5129 349° North  Level Estimated
08:11PM 10.6550 101.7330 349° North 482 555 38,000  Level FlightAware
08:12PM 10.7300 101.7170 348° North 482 555 38,000  Level FlightAware
08:12PM 10.8280 101.6960 348° North 480 552 38,000  Level FlightAware
08:13PM 10.9100 101.6770 347° North 480 552 38,000  Level FlightAware
08:14PM 11.0270 101.6510 348° North 481 554 38,000  Level FlightAware
08:14PM 11.1040 101.6340 348° North 481 554 38,000  Level FlightAware
08:15PM 11.2140 101.6100 348° North 481 554 38,000  Level FlightAware
08:16PM 11.3090 101.5880 347° North 482 555 38,000  Level FlightAware
08:17PM 11.4430 101.5590 348° North 481 554 38,000  Level FlightAware
08:18PM 11.5310 101.5390 347° North 480 552 38,000  Level FlightAware
08:18PM 11.6080 101.5220 348° North 480 552 38,000  Level FlightAware
08:19PM 11.6930 101.5020 347° North 480 552 38,000  Level FlightAware
08:20PM 11.7880 101.4810 348° North 482 555 38,000 -600 Level FlightAware
08:21PM 11.9230 101.4510 348° North 472 543 37,000 -1,200 Descending FlightAware
08:21PM 12.0300 101.4270 348° North 478 550 35,900 -1,740 Descending FlightAware
08:22PM 12.1090 101.4090 347° North 476 548 34,600 -2,100 Descending FlightAware
08:23PM 12.1890 101.3920 348° North 470 541 33,300 -2,220 Descending FlightAware
08:24PM 12.2920 101.3680 347° North 461 531 31,500 -2,220 Descending FlightAware
08:24PM 12.3750 101.3500 348° North 453 521 30,000 -2,280 Descending FlightAware
08:25PM 12.4600 101.3300 347° North 445 512 28,500 -2,160 Descending FlightAware
08:26PM 12.5470 101.3110 348° North 437 503 27,000 -2,040 Descending FlightAware
08:26PM 12.6100 101.2970 348° North 432 497 25,800 -2,160 Descending FlightAware
08:27PM 12.7110 101.2740 347° North 425 489 24,000 -2,040 Descending FlightAware
08:28PM 12.8010 101.2540 348° North 418 481 22,400 -1,980 Descending FlightAware
08:29PM 12.8950 101.2320 347° North 407 468 20,700 -2,040 Descending FlightAware
08:29PM 12.9660 101.2160 348° North 402 463 19,400 -1,980 Descending FlightAware
08:30PM 13.0390 101.2000 348° North 396 456 18,100 -1,800 Descending FlightAware
08:31PM 13.1190 101.1770 344° North 379 436 16,900 -1,680 Descending FlightAware
08:31PM 13.1860 101.1530 341° North 372 428 15,800 -1,680 Descending FlightAware
08:32PM 13.2710 101.1220 340° North 364 419 14,300 -1,560 Descending FlightAware
08:33PM 13.3400 101.0960 340° North 357 411 13,200 -1,980 Descending FlightAware
08:34PM 13.4290 101.0630 340° North 347 399 11,000 -1,920 Descending FlightAware
08:35PM 13.4860 101.0410 339° North 314 361 10,200 -1,200 Descending FlightAware
08:35PM 13.5260 101.0260 340° North 291 335 9,600 -1,200 Descending FlightAware
08:36PM 13.5540 101.0150 339° North 291 335 9,100 -600 Descending FlightAware
08:36PM 13.6110 100.9940 340° North 278 320 8,900 -720 Descending FlightAware
08:37PM 13.6410 100.9820 339° North 278 320 8,300 -1,560 Descending FlightAware
08:37PM 13.6740 100.9700 341° North 281 323 7,600 -1,620 Descending FlightAware
08:38PM 13.7150 100.9550 340° North 276 318 6,700 -1,680 Descending FlightAware
08:38PM 13.7610 100.9370 339° North 271 312 5,500 -1,740 Descending FlightAware
08:39PM 13.7970 100.9240 341° North 263 303 4,700 -1,140 Descending FlightAware
08:39PM 13.8230 100.9140 340° North 248 285 4,500 -840 Descending FlightAware
08:40PM 13.8470 100.9050 340° North 236 272 4,100 -540 Descending FlightAware
08:40PM 13.8670 100.8930 330° Northwest 218 251 4,100 -180 Level FlightAware
08:40PM 13.8740 100.8810 301° West 203 234 4,000 -1,080 Descending FlightAware
08:41PM 13.8810 100.8550 286° West 202 232 3,400 -1,440 Descending FlightAware
08:41PM 13.8870 100.8280 283° West 203 234 2,700 -1,500 Descending FlightAware
08:42PM 13.8860 100.8150 265° West 199 229 2,300 -1,500 Descending FlightAware
08:42PM 13.8810 100.8080 234° Southwest 196 226 2,200 -480 Descending FlightAware
08:42PM 13.8700 100.7990 218° Southwest 194 223 2,100 -120 Descending FlightAware
08:42PM 13.8460 100.7830 213° Southwest 192 221 2,100 60 Level FlightAware
08:43PM 13.8280 100.7760 201° Southwest 172 198 2,200  Climbing FlightAware
08:43PM 13.8110 100.7710 196° South 161 185 2,100 -600 Descending FlightAware
08:44PM 13.7780 100.7630 193° South 156 180 1,600 -780 Descending FlightAware
08:45PM 13.7540 100.7560 196° South 156 180 1,100 -840 Descending FlightAware
08:45PM 13.7370 100.7520 193° South 163 188 800 -900 Descending FlightAware
08:45PM 13.7120 100.7450 195° South 164 189 300 -480 Descending FlightAware
08:46PM 13.6930 100.7400 194° South 163 188 300  Level FlightAware
08:49PM 13.6811 100.7473 149° Southeast  Level Estimated
08:50PM 13.6811 100.7473 124° Southeast  Level Estimated
08:51PM 13.6811 100.7473 124° Southeast  Level Estimated
08:52PM 13.6811 100.7473 124° Southeast  Level Estimated
08:53PM 13.6811 100.7473 124° Southeast  Level Estimated
08:54PM 13.6811 100.7473 124° Southeast  Level Estimated
08:55PM 13.6811 100.7473 124° Southeast  Level Estimated
08:56PM 13.6811 100.7473 124° Southeast  Level Estimated
08:57PM 13.6811 100.7473 124° Southeast  Level Estimated
08:58PM 13.6811 100.7473 124° Southeast  Level Estimated
08:59PM 13.6811 100.7473 124° Southeast  Level Estimated
09:00PM 13.6811 100.7473 124° Southeast  Level Estimated
09:01PM 13.6811 100.7473 124° Southeast  Level Estimated